Time;durP1;ratioP1;P1;durP2;ratioP2;P2;SDS_P1;SDS_P2;PMS_P1;PMS_P2;Temp;Humidity;BMP_temperature;BMP_pressure;BME280_temperature;BME280_humidity;BME280_pressure;Samples;Min_cycle;Max_cycle;Signal;HPM_P1;HPM_P2
2022/07/01 00:01:30;;;;;;;7.03;4.97;;;;;;;24.15;55.78;100791.28;5038171;28;20261;-73
2022/07/01 00:03:56;;;;;;;8.60;4.37;;;;;;;23.95;56.43;100813.50;5038086;28;20185;-76
2022/07/01 00:06:22;;;;;;;6.63;4.80;;;;;;;24.05;56.55;100824.56;5038581;28;20232;-74
2022/07/01 00:08:50;;;;;;;6.77;4.20;;;;;;;23.39;60.05;100815.00;5037855;28;20443;-79
2022/07/01 00:11:16;;;;;;;4.40;4.03;;;;;;;23.02;62.93;100800.56;5037277;28;20178;-75
2022/07/01 00:13:41;;;;;;;5.20;4.70;;;;;;;23.07;65.04;100795.06;5038278;28;20400;-74
2022/07/01 00:16:07;;;;;;;6.83;5.30;;;;;;;22.54;68.00;100789.19;5037910;28;20226;-74
2022/07/01 00:18:32;;;;;;;9.03;5.50;;;;;;;22.65;68.73;100783.47;5037917;28;20535;-74
2022/07/01 00:20:57;;;;;;;5.87;5.37;;;;;;;22.41;70.07;100769.34;5038325;28;20166;-75
2022/07/01 00:23:23;;;;;;;9.20;6.03;;;;;;;22.68;69.81;100754.97;5037835;28;20181;-75
2022/07/01 00:25:48;;;;;;;10.80;5.80;;;;;;;22.41;71.33;100764.03;5037826;28;20233;-75
2022/07/01 00:28:14;;;;;;;10.90;6.40;;;;;;;22.24;73.40;100775.31;5038483;28;20197;-74
2022/07/01 00:30:39;;;;;;;9.70;6.30;;;;;;;22.08;73.02;100741.38;5037897;28;20498;-75
2022/07/01 00:33:05;;;;;;;7.33;6.00;;;;;;;22.14;73.83;100742.94;5037729;28;20180;-74
2022/07/01 00:35:30;;;;;;;8.27;6.50;;;;;;;22.07;73.90;100758.25;5038523;28;20543;-76
2022/07/01 00:37:56;;;;;;;11.60;5.73;;;;;;;22.04;75.62;100784.88;5037892;28;20173;-71
2022/07/01 00:40:22;;;;;;;9.50;6.30;;;;;;;21.72;77.07;100780.75;5037964;28;20185;-72
2022/07/01 00:42:47;;;;;;;8.37;5.87;;;;;;;21.74;76.87;100758.56;5038171;28;20405;-72
2022/07/01 00:45:14;;;;;;;7.60;5.83;;;;;;;20.91;78.48;100722.53;5038322;28;20249;-73
2022/07/01 00:47:40;;;;;;;7.20;6.13;;;;;;;21.08;77.18;100719.34;5037913;28;20170;-72
2022/07/01 00:50:11;;;;;;;9.40;6.50;;;;;;;20.61;82.09;100730.56;5038327;28;20436;-72
2022/07/01 00:52:38;;;;;;;18.57;12.80;;;;;;;21.80;78.59;100721.19;5037829;28;20463;-72
2022/07/01 00:55:06;;;;;;;9.70;7.03;;;;;;;20.65;81.22;100742.78;5037536;28;20428;-73
2022/07/01 00:57:32;;;;;;;9.63;6.73;;;;;;;19.52;86.34;100732.91;5037679;28;20416;-71
2022/07/01 00:59:58;;;;;;;8.33;7.10;;;;;;;20.01;86.72;100735.06;5037958;28;20803;-71
2022/07/01 01:02:24;;;;;;;12.30;8.00;;;;;;;19.85;89.06;100739.94;5038206;28;20417;-72
2022/07/01 01:04:49;;;;;;;8.80;7.53;;;;;;;20.10;88.27;100737.44;5040286;28;20474;-72
2022/07/01 01:07:15;;;;;;;17.03;8.80;;;;;;;21.28;84.64;100754.88;5041537;28;20185;-72
2022/07/01 01:09:40;;;;;;;11.20;8.13;;;;;;;21.18;82.05;100749.88;5041839;28;20196;-72
2022/07/01 01:12:06;;;;;;;10.33;7.77;;;;;;;21.41;81.78;100729.66;5040711;28;20177;-72
2022/07/01 01:14:47;;;;;;;11.13;8.87;;;;;;;21.57;81.41;100727.34;5040889;28;20174;-72
2022/07/01 01:17:13;;;;;;;11.30;8.20;;;;;;;21.73;80.63;100727.66;5041174;28;20170;-73
2022/07/01 01:19:40;;;;;;;8.37;7.53;;;;;;;20.77;80.90;100746.84;5041185;28;20542;-73
2022/07/01 01:22:05;;;;;;;7.80;7.00;;;;;;;21.61;78.17;100744.88;5041617;28;20417;-72
2022/07/01 01:24:31;;;;;;;8.93;7.20;;;;;;;21.89;78.06;100733.22;5041159;28;20449;-72
2022/07/01 01:26:56;;;;;;;7.80;7.07;;;;;;;21.12;81.79;100720.06;5041070;28;20198;-72
2022/07/01 01:29:21;;;;;;;8.67;7.80;;;;;;;21.19;81.69;100697.75;5041474;28;20236;-73
2022/07/01 01:31:47;;;;;;;10.90;7.53;;;;;;;21.59;80.12;100680.41;5042233;28;20517;-71
2022/07/01 01:34:12;;;;;;;8.80;7.90;;;;;;;21.72;79.87;100662.25;5045964;28;20182;-71
2022/07/01 01:36:38;;;;;;;9.10;8.20;;;;;;;21.83;78.09;100662.69;5041391;28;20193;-72
2022/07/01 01:39:12;;;;;;;9.90;8.83;;;;;;;21.65;79.11;100651.00;5040719;28;20253;-72
2022/07/01 01:41:37;;;;;;;9.30;8.40;;;;;;;21.64;79.74;100633.34;5040668;28;20170;-73
2022/07/01 01:44:03;;;;;;;13.73;8.47;;;;;;;21.52;79.06;100624.03;5040962;28;20505;-73
2022/07/01 01:46:29;;;;;;;10.77;8.30;;;;;;;20.41;83.72;100646.47;5040659;28;20174;-73
2022/07/01 01:48:55;;;;;;;11.43;8.47;;;;;;;20.91;83.59;100668.69;5040759;28;20166;-73
2022/07/01 01:51:21;;;;;;;9.57;8.67;;;;;;;21.12;82.88;100667.94;5041043;28;20683;-72
2022/07/01 01:53:47;;;;;;;10.30;8.70;;;;;;;21.76;80.02;100674.47;5040621;28;20571;-73
2022/07/01 01:56:12;;;;;;;9.40;8.50;;;;;;;21.77;79.72;100693.91;5040564;28;20392;-73
2022/07/01 01:58:42;;;;;;;12.83;9.17;;;;;;;21.60;80.79;100721.94;5041251;28;20442;-73
2022/07/01 02:01:09;;;;;;;9.10;8.20;;;;;;;21.06;83.08;100710.56;5040336;28;20166;-73
2022/07/01 02:03:34;;;;;;;10.83;7.77;;;;;;;21.41;81.79;100692.53;5040188;28;20424;-73
2022/07/01 02:05:59;;;;;;;10.57;9.50;;;;;;;21.76;80.03;100702.78;5040811;28;20711;-73
2022/07/01 02:08:25;;;;;;;10.43;8.70;;;;;;;21.13;80.28;100706.75;5040271;28;20245;-72
2022/07/01 02:10:50;;;;;;;12.20;8.03;;;;;;;21.07;82.69;100720.25;5040036;28;20201;-71
2022/07/01 02:13:16;;;;;;;9.23;8.33;;;;;;;21.85;80.56;100723.66;5040490;28;20489;-71
2022/07/01 02:15:41;;;;;;;9.37;8.40;;;;;;;22.02;79.65;100701.78;5039720;28;20622;-71
2022/07/01 02:18:06;;;;;;;8.00;7.30;;;;;;;21.62;79.95;100703.28;5040210;28;20561;-72
2022/07/01 02:20:32;;;;;;;8.70;7.90;;;;;;;21.64;80.36;100714.72;5040433;28;20170;-72
2022/07/01 02:22:57;;;;;;;10.60;9.50;;;;;;;21.59;79.80;100714.03;5039777;28;20266;-72
2022/07/01 02:25:23;;;;;;;10.10;8.00;;;;;;;21.08;81.46;100718.44;5039726;28;20469;-72
2022/07/01 02:27:48;;;;;;;8.73;8.00;;;;;;;21.02;81.83;100719.53;5040151;28;20163;-71
2022/07/01 02:30:14;;;;;;;10.27;8.97;;;;;;;21.72;79.94;100725.94;5039743;28;20568;-72
2022/07/01 02:32:39;;;;;;;9.67;8.77;;;;;;;22.12;78.72;100720.88;5039819;28;20174;-72
2022/07/01 02:35:05;;;;;;;9.43;8.63;;;;;;;21.91;81.09;100741.16;5040058;28;20173;-72
2022/07/01 02:37:33;;;;;;;10.23;9.00;;;;;;;22.12;79.57;100729.72;5039750;28;20256;-71
2022/07/01 02:39:58;;;;;;;9.07;8.27;;;;;;;21.73;79.82;100732.09;5039721;28;20409;-71
2022/07/01 02:42:26;;;;;;;9.17;8.27;;;;;;;22.08;79.21;100732.53;5040385;28;20413;-71
2022/07/01 02:44:52;;;;;;;9.33;8.50;;;;;;;21.59;82.12;100745.88;5039312;28;20208;-71
2022/07/01 02:47:17;;;;;;;11.33;9.40;;;;;;;21.81;80.37;100740.63;5039651;28;20578;-71
2022/07/01 02:49:43;;;;;;;10.70;9.70;;;;;;;21.95;79.64;100729.50;5040068;28;20434;-72
2022/07/01 02:52:08;;;;;;;10.27;9.37;;;;;;;21.65;80.97;100743.84;5039471;28;20178;-70
2022/07/01 02:54:34;;;;;;;10.40;9.40;;;;;;;21.68;80.83;100749.03;5038541;28;20174;-72
2022/07/01 02:56:59;;;;;;;10.53;9.47;;;;;;;21.59;80.86;100745.88;5040092;28;20166;-71
2022/07/01 02:59:24;;;;;;;9.63;8.60;;;;;;;21.78;80.34;100756.66;5039473;28;20261;-72
2022/07/01 03:01:50;;;;;;;8.87;8.17;;;;;;;22.03;79.78;100768.09;5040283;28;20180;-72
2022/07/01 03:04:15;;;;;;;8.90;8.10;;;;;;;21.30;82.03;100792.81;5039434;28;20178;-72
2022/07/01 03:06:41;;;;;;;8.43;7.63;;;;;;;21.67;80.84;100794.22;5039347;28;20178;-73
2022/07/01 03:09:06;;;;;;;9.73;8.73;;;;;;;21.62;81.43;100815.59;5039017;28;20194;-72
2022/07/01 03:11:32;;;;;;;8.97;8.23;;;;;;;21.49;80.95;100836.34;5039803;28;20177;-72
2022/07/01 03:13:57;;;;;;;8.10;7.30;;;;;;;21.36;81.54;100837.69;5039338;28;20169;-72
2022/07/01 03:16:22;;;;;;;9.83;8.93;;;;;;;21.30;81.17;100828.16;5038792;28;20309;-72
2022/07/01 03:18:48;;;;;;;9.90;9.00;;;;;;;21.47;81.03;100826.69;5039223;28;20201;-73
2022/07/01 03:21:13;;;;;;;8.87;8.17;;;;;;;21.55;80.66;100835.28;5038947;28;20186;-73
2022/07/01 03:23:39;;;;;;;9.57;8.87;;;;;;;21.50;80.39;100842.50;5038701;28;20189;-73
2022/07/01 03:26:04;;;;;;;10.60;9.57;;;;;;;21.54;79.91;100825.59;5038722;28;20463;-71
2022/07/01 03:28:31;;;;;;;11.57;10.67;;;;;;;21.12;81.00;100829.63;5038744;28;20180;-72
2022/07/01 03:30:57;;;;;;;11.57;10.57;;;;;;;21.27;81.79;100848.59;5038695;28;20227;-72
2022/07/01 03:33:22;;;;;;;11.93;10.80;;;;;;;21.14;81.40;100845.50;5038916;28;20387;-72
2022/07/01 03:35:47;;;;;;;14.80;13.50;;;;;;;21.45;80.43;100842.69;5038708;28;20443;-72
2022/07/01 03:38:13;;;;;;;15.53;14.23;;;;;;;21.20;80.67;100838.19;5038531;28;20224;-72
2022/07/01 03:40:39;;;;;;;14.53;13.23;;;;;;;20.73;82.68;100840.59;5039007;28;20174;-72
2022/07/01 03:43:05;;;;;;;15.40;14.00;;;;;;;21.13;81.50;100849.91;5038499;28;20179;-73
2022/07/01 03:45:31;;;;;;;14.30;12.90;;;;;;;21.40;79.68;100851.72;5038424;28;20206;-72
2022/07/01 03:47:56;;;;;;;13.13;12.10;;;;;;;21.34;79.25;100856.28;5038718;28;20388;-72
2022/07/01 03:50:23;;;;;;;13.03;11.80;;;;;;;21.10;80.41;100831.47;5037717;28;20452;-72
2022/07/01 03:54:29;;;;;;;12.77;11.33;;;;;;;21.02;80.44;100837.00;5038283;28;20223;-72
2022/07/01 03:55:35;;;;;;;13.70;12.50;;;;;;;20.79;81.14;100829.78;5038383;28;20452;-72
2022/07/01 03:58:00;;;;;;;13.37;12.17;;;;;;;20.72;82.21;100835.34;5038285;28;20417;-73
2022/07/01 04:00:25;;;;;;;13.67;12.33;;;;;;;20.92;82.08;100840.00;5038839;28;20231;-73
2022/07/01 04:02:51;;;;;;;13.40;12.10;;;;;;;20.83;81.48;100835.88;5038302;28;20261;-72
2022/07/01 04:05:16;;;;;;;12.47;11.40;;;;;;;20.98;81.60;100819.47;5038149;28;20286;-72
2022/07/01 04:07:42;;;;;;;11.93;10.77;;;;;;;21.09;80.46;100797.91;5038631;28;20579;-74
2022/07/01 04:10:07;;;;;;;12.67;11.57;;;;;;;21.05;81.12;100819.28;5038080;28;20591;-73
2022/07/01 04:12:32;;;;;;;13.03;11.83;;;;;;;21.47;80.69;100821.41;5038114;28;20547;-72
2022/07/01 04:14:58;;;;;;;11.87;10.80;;;;;;;21.23;80.61;100818.69;5038349;28;20221;-73
2022/07/01 04:17:23;;;;;;;12.23;11.13;;;;;;;21.18;80.48;100813.50;5038040;28;20174;-73
2022/07/01 04:19:49;;;;;;;12.30;11.40;;;;;;;;;;5038003;28;20170;-72
2022/07/01 04:22:32;;;;;;;11.90;11.00;;;;;;;20.92;82.21;100827.63;5037955;28;20559;-73
2022/07/01 04:24:58;;;;;;;12.03;11.03;;;;;;;21.18;81.63;100831.22;5037838;28;20214;-73
2022/07/01 04:27:23;;;;;;;11.13;10.33;;;;;;;20.99;81.57;100841.56;5037946;28;20400;-73
2022/07/01 04:29:48;;;;;;;11.17;10.10;;;;;;;20.81;81.59;100854.47;5037980;28;20170;-73
2022/07/01 04:32:14;;;;;;;10.40;9.50;;;;;;;20.80;80.79;100860.69;5038474;28;20180;-73
2022/07/01 04:34:39;;;;;;;11.20;10.20;;;;;;;20.73;82.37;100864.44;5037781;28;20431;-73
2022/07/01 04:37:05;;;;;;;11.60;10.70;;;;;;;20.35;83.45;100877.88;5037878;28;20442;-72
2022/07/01 04:39:30;;;;;;;10.07;9.37;;;;;;;20.38;82.30;100881.34;5040695;28;20170;-72
2022/07/01 04:42:01;;;;;;;11.40;10.50;;;;;;;20.44;82.18;100876.72;5041876;28;20433;-72
2022/07/01 04:44:32;;;;;;;12.33;11.33;;;;;;;20.35;82.56;100871.72;5041467;28;20605;-72
2022/07/01 04:46:58;;;;;;;12.57;11.40;;;;;;;20.25;82.43;100876.41;5041700;28;20725;-71
2022/07/01 04:49:24;;;;;;;15.13;13.77;;;;;;;20.70;81.18;100875.13;5041619;28;20437;-71
2022/07/01 04:51:49;;;;;;;14.60;13.40;;;;;;;20.64;81.32;100876.13;5042293;28;20383;-72
2022/07/01 04:54:15;;;;;;;13.97;12.17;;;;;;;20.06;82.09;100897.22;5041524;28;20181;-72
2022/07/01 04:56:40;;;;;;;12.73;11.43;;;;;;;20.24;81.52;100906.44;5041396;28;20174;-73
2022/07/01 04:59:06;;;;;;;12.27;11.07;;;;;;;20.09;82.42;100915.66;5041786;28;20249;-73
2022/07/01 05:01:31;;;;;;;14.67;11.27;;;;;;;19.88;82.37;100917.13;5041517;28;20185;-73
2022/07/01 05:03:57;;;;;;;11.90;10.63;;;;;;;19.66;83.87;100933.50;5041194;28;20525;-71
2022/07/01 05:06:23;;;;;;;16.17;11.27;;;;;;;19.59;83.82;100945.16;5041709;28;20202;-72
2022/07/01 05:08:49;;;;;;;14.93;11.60;;;;;;;19.63;83.63;100938.88;5041324;28;20178;-72
2022/07/01 05:11:14;;;;;;;13.50;10.07;;;;;;;19.38;83.86;100943.88;5041336;28;20391;-72
2022/07/01 05:13:40;;;;;;;20.90;12.20;;;;;;;19.58;82.85;100940.75;5040791;28;20170;-72
2022/07/01 05:16:06;;;;;;;11.30;9.50;;;;;;;19.37;82.40;100944.78;5040364;28;20248;-72
2022/07/01 05:23:59;;;;;;;12.17;8.40;;;;;;;19.35;83.15;100954.53;5041091;28;20439;-72
2022/07/01 05:26:25;;;;;;;16.27;9.20;;;;;;;19.12;82.46;100963.88;5041153;28;20862;-72
2022/07/01 05:28:52;;;;;;;13.13;9.03;;;;;;;19.19;84.13;100954.03;5041234;28;20491;-74
2022/07/01 05:31:18;;;;;;;13.80;8.87;;;;;;;19.23;83.89;100957.44;5041822;28;20667;-72
2022/07/01 05:33:44;;;;;;;9.40;7.20;;;;;;;19.27;84.21;100967.06;5041100;28;20432;-72
2022/07/01 05:36:10;;;;;;;8.50;7.00;;;;;;;18.84;85.05;100969.69;5041275;28;20579;-72
2022/07/01 05:38:35;;;;;;;7.20;6.50;;;;;;;18.62;84.73;100986.91;5041606;28;20249;-71
2022/07/01 05:41:00;;;;;;;8.97;6.53;;;;;;;19.13;83.12;100973.53;5041170;28;20559;-72
2022/07/01 05:43:26;;;;;;;8.90;6.27;;;;;;;18.98;83.67;100963.28;5051353;28;20189;-71
2022/07/01 05:45:51;;;;;;;8.67;5.63;;;;;;;18.77;82.95;100977.81;5060926;28;20568;-71
2022/07/01 05:48:17;;;;;;;6.37;5.33;;;;;;;18.64;82.98;100987.72;5060689;28;20201;-71
2022/07/01 05:50:43;;;;;;;8.30;5.50;;;;;;;18.55;83.15;101001.09;5059236;28;20185;-71
2022/07/01 05:53:08;;;;;;;5.67;4.90;;;;;;;19.01;81.71;101014.31;5060828;28;20197;-71
2022/07/01 05:55:34;;;;;;;7.10;4.80;;;;;;;19.08;80.98;101028.25;5060434;28;20529;-71
2022/07/01 05:58:01;;;;;;;6.60;4.90;;;;;;;18.41;83.04;101036.56;5049241;28;20214;-71
2022/07/01 06:00:27;;;;;;;7.17;4.83;;;;;;;18.58;82.71;101053.84;5054345;28;20285;-72
2022/07/01 06:02:52;;;;;;;6.40;5.10;;;;;;;18.62;82.78;101051.16;5056818;28;20529;-71
2022/07/01 06:05:17;;;;;;;5.70;4.30;;;;;;;18.61;82.50;101051.19;5058100;28;20570;-71
2022/07/01 06:07:43;;;;;;;6.43;4.60;;;;;;;18.59;80.82;101053.84;5060283;28;20181;-71
2022/07/01 06:10:12;;;;;;;6.20;4.47;;;;;;;18.89;80.80;101051.56;5060076;28;20174;-73
2022/07/01 06:12:38;;;;;;;6.50;4.20;;;;;;;19.16;80.66;101054.53;5054405;28;20189;-71
2022/07/01 06:15:05;;;;;;;5.20;4.40;;;;;;;18.94;80.50;101052.34;5059460;28;20451;-70
2022/07/01 06:17:30;;;;;;;7.60;4.33;;;;;;;19.07;79.75;101050.28;5055824;28;20449;-72
2022/07/01 06:19:56;;;;;;;5.50;4.23;;;;;;;19.23;79.58;101049.94;5048044;28;20777;-73
2022/07/01 06:22:21;;;;;;;5.07;4.03;;;;;;;19.03;79.43;101053.91;5056178;28;20555;-71
2022/07/01 06:24:47;;;;;;;4.43;4.00;;;;;;;18.72;80.07;101056.25;5059682;28;20231;-70
2022/07/01 06:27:13;;;;;;;7.27;4.03;;;;;;;18.52;80.95;101049.56;5059483;28;20209;-71
2022/07/01 06:29:38;;;;;;;4.83;4.33;;;;;;;18.77;79.84;101060.53;5052631;28;20457;-71
2022/07/01 06:32:05;;;;;;;6.33;4.70;;;;;;;18.75;79.69;101061.47;5057101;28;20582;-70
2022/07/01 06:34:30;;;;;;;9.40;4.73;;;;;;;18.89;80.42;101066.50;5058328;28;20569;-70
2022/07/01 06:36:56;;;;;;;8.30;4.43;;;;;;;18.99;80.29;101058.38;5059725;28;20407;-69
2022/07/01 06:39:21;;;;;;;6.97;5.27;;;;;;;19.19;79.35;101062.38;5059582;28;20178;-69
2022/07/01 06:41:47;;;;;;;8.73;4.97;;;;;;;19.21;79.35;101049.13;5059229;28;20181;-71
2022/07/01 06:44:13;;;;;;;5.40;4.90;;;;;;;18.79;80.86;101047.31;5059192;28;20174;-71
2022/07/01 06:46:38;;;;;;;6.27;5.63;;;;;;;19.05;79.73;101043.28;5059541;28;20201;-71
2022/07/01 06:49:04;;;;;;;8.73;5.77;;;;;;;19.11;79.84;101036.09;5060778;28;20819;-71
2022/07/01 06:51:29;;;;;;;5.30;4.83;;;;;;;19.17;79.32;101021.88;5059372;28;20185;-73
2022/07/01 06:53:55;;;;;;;6.53;5.37;;;;;;;18.96;80.70;101007.38;5058010;28;20278;-72
2022/07/01 06:56:21;;;;;;;5.73;4.97;;;;;;;19.19;80.43;101002.44;5057464;28;20182;-73
2022/07/01 06:58:46;;;;;;;5.93;5.37;;;;;;;19.29;79.55;101010.19;5059439;28;20543;-72
2022/07/01 07:01:11;;;;;;;7.27;5.10;;;;;;;19.16;79.23;101013.09;5057573;28;20182;-73
2022/07/01 07:03:37;;;;;;;8.80;5.40;;;;;;;19.07;79.24;101031.78;5059380;28;20644;-73
2022/07/01 07:06:03;;;;;;;7.17;5.30;;;;;;;19.16;78.24;101030.75;5052873;28;20493;-71
2022/07/01 07:08:29;;;;;;;5.97;5.10;;;;;;;19.25;78.54;101045.53;5058699;28;20287;-74
2022/07/01 07:10:55;;;;;;;6.50;5.33;;;;;;;19.33;78.75;101056.78;5059572;28;20391;-71
2022/07/01 07:13:20;;;;;;;7.77;5.00;;;;;;;19.09;78.94;101059.06;5058853;28;20446;-74
2022/07/01 07:15:46;;;;;;;6.00;5.03;;;;;;;19.17;78.16;101065.06;5057482;28;20312;-71
2022/07/01 07:18:11;;;;;;;5.23;4.60;;;;;;;18.84;78.22;101061.28;5056905;28;20193;-69
2022/07/01 07:20:37;;;;;;;4.80;4.30;;;;;;;19.20;78.13;101072.06;5058407;28;20170;-69
2022/07/01 07:23:02;;;;;;;5.30;4.80;;;;;;;19.07;76.87;101071.44;5058081;28;20273;-69
2022/07/01 07:25:28;;;;;;;7.30;4.10;;;;;;;19.39;75.65;101072.53;5057232;28;20212;-70
2022/07/01 07:27:53;;;;;;;7.67;4.27;;;;;;;19.22;77.15;101075.53;5058342;28;20189;-70
2022/07/01 07:30:18;;;;;;;4.80;4.40;;;;;;;18.88;77.62;101088.53;5058856;28;20235;-71
2022/07/01 07:32:44;;;;;;;5.40;3.73;;;;;;;19.12;76.50;101093.34;5058466;28;20226;-71
2022/07/01 07:35:10;;;;;;;4.10;3.70;;;;;;;18.89;76.69;101096.47;5058170;28;20331;-70
2022/07/01 07:37:36;;;;;;;4.17;3.67;;;;;;;19.23;76.40;101097.53;5058253;28;20427;-70
2022/07/01 07:40:03;;;;;;;5.13;4.20;;;;;;;18.86;77.42;101099.09;5058942;28;20438;-70
2022/07/01 07:42:29;;;;;;;4.70;3.77;;;;;;;18.93;77.54;101103.41;5055599;28;20185;-71
2022/07/01 07:44:54;;;;;;;4.50;4.17;;;;;;;19.00;77.17;101109.47;5039464;28;20476;-71
2022/07/01 07:47:20;;;;;;;4.00;3.60;;;;;;;18.89;77.68;101122.88;5058602;28;20263;-70
2022/07/01 07:49:45;;;;;;;4.33;3.97;;;;;;;19.03;77.12;101112.03;5057614;28;20184;-70
2022/07/01 07:52:11;;;;;;;5.33;4.00;;;;;;;18.84;77.71;101114.13;5057641;28;20547;-72
2022/07/01 07:54:37;;;;;;;4.43;4.13;;;;;;;19.00;77.57;101102.38;5058082;28;20194;-71
2022/07/01 07:57:03;;;;;;;3.90;3.60;;;;;;;18.79;78.01;101106.28;5045687;28;20606;-69
2022/07/01 07:59:28;;;;;;;5.00;4.50;;;;;;;18.71;78.40;101100.25;5055811;28;20189;-72
2022/07/01 08:01:54;;;;;;;4.57;4.20;;;;;;;19.08;76.84;101104.88;5057220;28;20182;-71
2022/07/01 08:04:20;;;;;;;4.80;4.37;;;;;;;18.78;77.24;101109.84;5057895;28;20166;-71
2022/07/01 08:06:45;;;;;;;5.60;4.00;;;;;;;18.84;77.01;101111.47;5058090;28;20455;-70
2022/07/01 08:09:10;;;;;;;5.00;4.50;;;;;;;18.42;77.77;101104.31;5058529;28;20174;-71
2022/07/01 08:11:36;;;;;;;4.87;4.40;;;;;;;19.04;76.20;101105.84;5056977;28;20513;-70
2022/07/01 08:14:01;;;;;;;4.47;4.13;;;;;;;19.30;74.84;101097.38;5049515;28;20465;-69
2022/07/01 08:16:27;;;;;;;7.87;4.87;;;;;;;18.93;75.18;101095.50;5050420;28;20265;-68
2022/07/01 08:18:52;;;;;;;4.93;4.30;;;;;;;18.99;75.58;101097.13;5057827;28;20178;-70
2022/07/01 08:21:17;;;;;;;4.50;4.20;;;;;;;19.73;74.02;101100.88;5058239;28;20177;-70
2022/07/01 08:23:43;;;;;;;4.83;4.33;;;;;;;19.61;74.01;101104.66;5057690;28;20442;-72
2022/07/01 08:26:08;;;;;;;4.97;4.60;;;;;;;19.36;74.87;101106.94;5057813;28;20205;-71
2022/07/01 08:28:34;;;;;;;4.57;4.13;;;;;;;19.37;74.09;101111.34;5058449;28;20177;-71
2022/07/01 08:30:59;;;;;;;4.80;4.40;;;;;;;19.38;73.90;101102.50;5058093;28;20539;-69
2022/07/01 08:33:25;;;;;;;5.43;4.40;;;;;;;19.64;72.97;101103.72;5057978;28;20173;-68
2022/07/01 08:35:50;;;;;;;4.80;4.40;;;;;;;19.71;73.78;101112.38;5058387;28;20169;-71
2022/07/01 08:38:15;;;;;;;5.27;4.73;;;;;;;19.55;73.83;101111.84;5057857;28;20220;-71
2022/07/01 08:40:41;;;;;;;6.70;4.57;;;;;;;19.84;72.23;101121.81;5057968;28;20173;-76
2022/07/01 08:43:07;;;;;;;5.43;4.53;;;;;;;19.46;74.00;101127.00;5058396;28;20553;-74
2022/07/01 08:45:35;;;;;;;5.97;4.30;;;;;;;19.32;74.39;101132.59;5057640;28;20251;-73
2022/07/01 08:48:02;;;;;;;4.83;4.43;;;;;;;19.49;73.67;101129.59;5059520;28;20176;-73
2022/07/01 08:50:31;;;;;;;5.00;4.50;;;;;;;19.30;73.69;101129.09;5057720;28;20561;-73
2022/07/01 08:52:58;;;;;;;5.50;5.00;;;;;;;19.68;72.27;101130.06;5057055;28;20499;-72
2022/07/01 08:55:24;;;;;;;5.60;4.70;;;;;;;19.60;73.72;101136.44;5057166;28;20498;-73
2022/07/01 08:57:49;;;;;;;4.50;4.10;;;;;;;19.31;74.22;101140.56;5058048;28;20416;-72
2022/07/01 09:00:16;;;;;;;4.97;4.47;;;;;;;19.01;74.54;101142.88;5057824;28;20419;-74
2022/07/01 09:03:02;;;;;;;4.87;4.40;;;;;;;19.49;73.26;101147.25;5057774;28;20444;-73
2022/07/01 09:05:29;;;;;;;5.00;4.50;;;;;;;19.34;73.18;101145.78;5057471;28;20507;-72
2022/07/01 09:07:59;;;;;;;5.77;5.20;;;;;;;19.26;74.07;101153.84;5057611;28;20424;-71
2022/07/01 09:10:26;;;;;;;5.03;4.63;;;;;;;19.33;73.10;101158.09;5057717;28;20391;-72
2022/07/01 09:12:51;;;;;;;5.67;5.17;;;;;;;19.19;73.20;101153.09;5056798;28;20670;-72
2022/07/01 09:15:25;;;;;;;5.30;4.67;;;;;;;19.34;73.17;101161.66;5057254;28;20474;-72
2022/07/01 09:17:55;;;;;;;4.70;4.40;;;;;;;18.95;73.47;101166.78;5057400;28;20170;-72
2022/07/01 09:20:27;;;;;;;5.27;4.20;;;;;;;19.10;74.13;101169.13;5056805;28;20427;-73
2022/07/01 09:22:59;;;;;;;5.50;5.10;;;;;;;18.80;74.23;101174.06;5057262;28;20416;-72
2022/07/01 09:25:45;;;;;;;5.40;5.00;;;;;;;19.09;74.78;101170.06;5059294;28;20467;-71
2022/07/01 09:28:12;;;;;;;4.80;4.40;;;;;;;19.22;73.52;101177.75;5061037;28;20499;-70
2022/07/01 09:30:38;;;;;;;5.30;4.40;;;;;;;19.25;73.40;101178.53;5060946;28;20424;-73
2022/07/01 09:33:18;;;;;;;5.47;4.90;;;;;;;18.90;74.74;101174.78;5060816;28;20416;-75
2022/07/01 09:35:45;;;;;;;6.83;5.40;;;;;;;18.84;74.69;101194.22;5060797;28;20416;-75
2022/07/01 09:38:13;;;;;;;6.00;5.50;;;;;;;19.11;74.29;101191.16;5060068;28;20402;-75
2022/07/01 09:41:00;;;;;;;5.50;5.10;;;;;;;18.94;75.28;101187.06;5060964;28;20665;-72
2022/07/01 09:43:27;;;;;;;6.10;5.50;;;;;;;19.34;73.97;101188.09;5060777;28;20622;-72
2022/07/01 09:45:53;;;;;;;5.73;5.23;;;;;;;19.01;74.19;101174.59;5060797;28;20513;-71
2022/07/01 09:48:18;;;;;;;7.57;5.97;;;;;;;19.39;73.67;101167.72;5060274;28;20498;-71
2022/07/01 09:50:45;;;;;;;5.97;5.47;;;;;;;19.44;72.69;101168.47;5062344;28;20184;-70
2022/07/01 09:53:10;;;;;;;6.20;5.70;;;;;;;19.27;72.68;101160.03;5061288;28;20166;-70
2022/07/01 09:55:36;;;;;;;5.43;4.93;;;;;;;19.58;72.52;101169.97;5060669;28;20439;-69
2022/07/01 09:58:01;;;;;;;5.60;5.10;;;;;;;19.51;72.88;101185.97;5060555;28;20252;-74
2022/07/01 10:00:27;;;;;;;6.47;5.80;;;;;;;19.21;72.46;101197.16;5060304;28;20180;-73
2022/07/01 10:02:53;;;;;;;6.07;5.67;;;;;;;19.34;72.89;101203.94;5042843;28;20172;-72
2022/07/01 10:05:23;;;;;;;6.70;5.30;;;;;;;19.32;73.00;101208.38;5060089;28;20296;-72
2022/07/01 10:08:07;;;;;;;6.07;5.50;;;;;;;19.19;72.79;101207.75;5059994;28;20661;-72
2022/07/01 10:10:42;;;;;;;6.33;5.83;;;;;;;18.72;74.16;101212.94;5060256;28;20703;-72
2022/07/01 10:13:08;;;;;;;6.13;5.53;;;;;;;18.95;73.42;101222.28;5060148;28;20801;-71
2022/07/01 10:15:34;;;;;;;7.83;5.53;;;;;;;18.79;73.79;101227.78;5059862;28;20728;-73
2022/07/01 10:18:02;;;;;;;6.30;5.77;;;;;;;18.74;73.43;101224.38;5060018;28;20439;-71
2022/07/01 10:20:29;;;;;;;5.00;4.60;;;;;;;18.90;73.20;101230.25;5060355;28;20529;-70
2022/07/01 10:23:05;;;;;;;5.70;5.20;;;;;;;19.08;73.13;101223.81;5059807;28;20420;-70
2022/07/01 10:25:31;;;;;;;5.80;5.20;;;;;;;18.94;74.71;101237.28;5059749;28;20491;-70
2022/07/01 10:28:27;;;;;;;6.60;6.10;;;;;;;19.07;72.16;101227.34;5059659;28;20416;-70
2022/07/01 10:30:53;;;;;;;6.43;5.93;;;;;;;18.60;73.14;101231.63;5059790;28;20173;-70
2022/07/01 10:33:40;;;;;;;7.03;6.33;;;;;;;18.96;71.98;101224.03;5059672;28;20473;-70
2022/07/01 10:36:17;;;;;;;6.67;6.00;;;;;;;19.10;71.84;101231.72;5059858;28;20165;-71
2022/07/01 10:39:17;;;;;;;6.60;6.00;;;;;;;19.16;72.67;101232.47;5059642;28;20426;-70
2022/07/01 10:41:45;;;;;;;6.20;5.70;;;;;;;19.15;72.58;101241.28;5016780;28;20428;-70
2022/07/01 10:44:12;;;;;;;7.20;6.60;;;;;;;19.15;72.71;101249.22;5059296;28;20753;-70
2022/07/01 10:46:45;;;;;;;9.77;7.40;;;;;;;18.93;72.97;101254.00;5059615;28;20463;-70
2022/07/01 10:49:12;;;;;;;6.73;6.13;;;;;;;18.82;73.03;101267.38;5059707;28;20804;-70
2022/07/01 10:51:55;;;;;;;7.10;6.60;;;;;;;18.79;73.56;101264.75;5060417;28;20417;-71
2022/07/01 10:54:45;;;;;;;7.53;6.80;;;;;;;18.62;73.78;101270.31;5059148;28;20752;-69
2022/07/01 10:57:16;;;;;;;7.20;6.53;;;;;;;18.43;74.40;101282.94;5059227;28;20454;-70
2022/07/01 10:59:43;;;;;;;7.70;7.07;;;;;;;18.78;73.51;101281.53;5059159;28;20514;-72
2022/07/01 11:02:12;;;;;;;7.37;6.70;;;;;;;18.83;73.67;101282.31;5057681;28;20523;-71
2022/07/01 11:04:38;;;;;;;8.73;7.83;;;;;;;19.11;73.08;101286.31;5058536;28;20837;-71
2022/07/01 11:07:03;;;;;;;7.80;7.10;;;;;;;18.80;73.40;101285.00;5059029;28;20554;-72
2022/07/01 11:09:29;;;;;;;7.50;6.80;;;;;;;18.75;72.94;101278.91;5059145;28;20177;-70
2022/07/01 11:11:54;;;;;;;7.60;6.90;;;;;;;19.07;73.17;101284.63;5058960;28;20253;-70
2022/07/01 11:14:19;;;;;;;9.40;8.50;;;;;;;19.78;71.52;101288.59;5058780;28;20171;-72
2022/07/01 11:16:45;;;;;;;9.60;7.60;;;;;;;19.13;71.39;101289.78;5058758;28;20217;-71
2022/07/01 11:19:10;;;;;;;7.60;7.00;;;;;;;19.64;71.25;101286.22;5058850;28;20166;-72
2022/07/01 11:21:36;;;;;;;8.90;8.10;;;;;;;19.32;71.07;101285.03;5058972;28;20212;-71
2022/07/01 11:24:01;;;;;;;7.90;7.27;;;;;;;19.81;70.60;101286.78;5059125;28;20252;-71
2022/07/01 11:26:27;;;;;;;8.97;8.10;;;;;;;19.83;70.39;101286.75;5058608;28;20205;-71